Track Кладиенко Олег

Time Latitude Longitude Accuracy (66% radius in meters) Altitude (meters) Speed (km/hour) Bearing (degrees) Battery (%) GPS flag
09:25:21 60.404575 30.331845 0 0 0 0 1 delete
09:25:20 60.404577 30.331848 0 0 0 0 1 delete
09:25:19 60.404578 30.331852 0 0 0 0 1 delete
09:25:18 60.404580 30.331863 0 0 0 0 1 delete
09:25:17 60.404582 30.331867 0 0 0 0 1 delete
09:25:16 60.404583 30.331870 0 0 0 0 1 delete
09:25:15 60.404588 30.331873 0 0 0 0 1 delete
09:25:14 60.404593 30.331880 0 0 0 0 1 delete
09:25:13 60.404597 30.331887 0 0 0 0 1 delete
09:25:12 60.404603 30.331893 0 0 0 0 1 delete
09:25:11 60.404607 30.331897 0 0 0 0 1 delete
09:25:10 60.404610 30.331902 0 0 0 0 1 delete
09:25:09 60.404613 30.331907 0 0 0 0 1 delete
09:25:08 60.404618 30.331917 0 0 0 0 1 delete
09:25:07 60.404627 30.331928 0 0 0 0 1 delete
09:25:06 60.404635 30.331948 0 0 0 0 1 delete
09:25:05 60.404643 30.331970 0 0 0 0 1 delete
09:25:04 60.404652 30.331993 0 0 0 0 1 delete
09:25:03 60.404663 30.332017 0 0 0 0 1 delete
09:25:02 60.404672 30.332030 0 0 0 0 1 delete
09:25:01 60.404677 30.332038 0 0 0 0 1 delete
09:25:00 60.404682 30.332040 0 0 0 0 1 delete
09:24:59 60.404688 30.332040 0 0 0 0 1 delete
09:24:58 60.404693 30.332038 0 0 0 0 1 delete
09:24:57 60.404700 30.332040 0 0 0 0 1 delete
09:24:56 60.404703 30.332038 0 0 0 0 1 delete
09:24:55 60.404707 30.332037 0 0 0 0 1 delete
09:24:54 60.404713 30.332037 0 0 0 0 1 delete
09:24:53 60.404718 30.332037 0 0 0 0 1 delete
09:24:52 60.404722 30.332038 0 0 0 0 1 delete
09:24:51 60.404725 30.332038 0 0 0 0 1 delete
09:24:50 60.404727 30.332037 0 0 0 0 1 delete
09:24:49 60.404727 30.332038 0 0 0 0 1 delete
09:24:48 60.404730 30.332043 0 0 0 0 1 delete
09:24:47 60.404733 30.332050 0 0 0 0 1 delete
09:24:46 60.404738 30.332055 0 0 0 0 1 delete
09:24:45 60.404747 30.332062 0 0 0 0 1 delete
09:24:44 60.404760 30.332075 0 0 0 0 1 delete
09:24:43 60.404783 30.332093 0 0 0 0 1 delete
09:24:42 60.404818 30.332117 0 0 0 0 1 delete
09:24:41 60.404858 30.332143 0 0 0 0 1 delete
09:24:40 60.404888 30.332162 0 0 0 0 1 delete
09:24:39 60.404922 30.332185 0 0 0 0 1 delete
09:24:38 60.404958 30.332207 0 0 0 0 1 delete
09:24:37 60.405000 30.332215 0 0 0 0 1 delete
09:24:36 60.405033 30.332228 0 0 0 0 1 delete
09:24:35 60.405070 30.332233 0 0 0 0 1 delete
09:24:34 60.405110 30.332248 0 0 0 0 1 delete
09:24:33 60.405142 30.332260 0 0 0 0 1 delete
09:24:32 60.405170 30.332293 0 0 0 0 1 delete